Township of Washington, New Jersey
Current Conditions -  °F | °C
As of 2:51 PM on Thursday 23 Oct 2014 (Local Time) from KTEB Reporting Station
Light Rain Light Rain  
Wind Chill: 52°   Ceiling: 3200
Heat Index: 52°   Visibility: 5mi
Dew Point: 47°   Wind: 10mph
Humidity: 83%   Direction: 350°N
Pressure: 29.7"   Gusts: 23mph
Location:  41.0089°N, 74.0218°W
Report Text: KTEB 231851Z 35009G20KT 5SM -RA FEW023 OVC032 11/08 A2970 RMK AO2 SLP058 P0001 T01110083
Loading
Personal Weather Stations






























Interactive Weather Map
Tropical Storm Tracking
New forecast layout! Learn more

10-Day Weather Forecast

Advertisements
Track Severe Weather on mobile